sensor_id;sensor_type;location;lat;lon;timestamp;P1;durP1;ratioP1;P2;durP2;ratioP2
63664;SDS011;49820;33.966;73.390;2022-11-20T06:32:38;6.63;;;4.25;;
63664;SDS011;49820;33.966;73.390;2022-11-20T06:35:08;8.35;;;5.35;;
63664;SDS011;49820;33.966;73.390;2022-11-20T06:37:36;9.23;;;6.50;;
63664;SDS011;49820;33.966;73.390;2022-11-20T06:40:06;9.63;;;5.45;;
63664;SDS011;49820;33.966;73.390;2022-11-20T06:42:36;10.23;;;5.90;;
63664;SDS011;49820;33.966;73.390;2022-11-20T06:45:05;8.70;;;5.57;;
63664;SDS011;49820;33.966;73.390;2022-11-20T06:47:34;9.45;;;6.72;;
63664;SDS011;49820;33.966;73.390;2022-11-20T06:50:03;9.65;;;6.32;;
63664;SDS011;49820;33.966;73.390;2022-11-20T06:52:32;11.18;;;7.80;;
63664;SDS011;49820;33.966;73.390;2022-11-20T06:55:08;11.82;;;6.93;;
63664;SDS011;49820;33.966;73.390;2022-11-20T06:57:37;12.02;;;8.00;;
63664;SDS011;49820;33.966;73.390;2022-11-20T07:00:06;12.98;;;8.13;;
63664;SDS011;49820;33.966;73.390;2022-11-20T07:02:35;10.30;;;6.88;;
63664;SDS011;49820;33.966;73.390;2022-11-20T07:05:04;9.38;;;6.53;;
63664;SDS011;49820;33.966;73.390;2022-11-20T07:07:33;9.80;;;6.50;;
63664;SDS011;49820;33.966;73.390;2022-11-20T07:10:03;12.32;;;6.78;;
63664;SDS011;49820;33.966;73.390;2022-11-20T07:12:32;11.60;;;6.90;;
63664;SDS011;49820;33.966;73.390;2022-11-20T07:15:01;11.40;;;7.13;;
63664;SDS011;49820;33.966;73.390;2022-11-20T07:17:30;10.57;;;6.60;;
63664;SDS011;49820;33.966;73.390;2022-11-20T07:19:59;9.82;;;6.65;;
63664;SDS011;49820;33.966;73.390;2022-11-20T07:22:28;10.93;;;7.45;;
63664;SDS011;49820;33.966;73.390;2022-11-20T07:24:58;12.02;;;7.82;;
63664;SDS011;49820;33.966;73.390;2022-11-20T07:27:26;11.68;;;8.07;;
63664;SDS011;49820;33.966;73.390;2022-11-20T07:29:56;13.43;;;8.30;;
63664;SDS011;49820;33.966;73.390;2022-11-20T07:32:25;13.48;;;8.50;;
63664;SDS011;49820;33.966;73.390;2022-11-20T07:34:54;12.85;;;8.68;;
63664;SDS011;49820;33.966;73.390;2022-11-20T07:37:23;11.93;;;8.27;;
63664;SDS011;49820;33.966;73.390;2022-11-20T07:39:52;12.20;;;7.78;;
63664;SDS011;49820;33.966;73.390;2022-11-20T07:42:22;12.10;;;8.05;;
63664;SDS011;49820;33.966;73.390;2022-11-20T07:44:52;11.70;;;7.85;;
63664;SDS011;49820;33.966;73.390;2022-11-20T07:47:21;12.23;;;8.43;;
63664;SDS011;49820;33.966;73.390;2022-11-20T07:49:50;14.18;;;9.65;;
63664;SDS011;49820;33.966;73.390;2022-11-20T07:52:19;12.13;;;7.60;;
63664;SDS011;49820;33.966;73.390;2022-11-20T07:54:47;10.48;;;7.60;;
63664;SDS011;49820;33.966;73.390;2022-11-20T07:57:16;10.60;;;7.38;;
63664;SDS011;49820;33.966;73.390;2022-11-20T07:59:50;13.20;;;7.50;;
63664;SDS011;49820;33.966;73.390;2022-11-20T08:02:19;11.70;;;8.40;;
63664;SDS011;49820;33.966;73.390;2022-11-20T08:04:48;11.18;;;7.50;;
63664;SDS011;49820;33.966;73.390;2022-11-20T08:07:17;10.50;;;6.28;;
63664;SDS011;49820;33.966;73.390;2022-11-20T08:09:46;9.80;;;6.50;;
63664;SDS011;49820;33.966;73.390;2022-11-20T08:12:19;8.75;;;6.38;;
63664;SDS011;49820;33.966;73.390;2022-11-20T08:15:08;10.13;;;6.10;;
63664;SDS011;49820;33.966;73.390;2022-11-20T08:17:39;9.02;;;5.65;;
63664;SDS011;49820;33.966;73.390;2022-11-20T08:20:23;6.68;;;5.07;;
63664;SDS011;49820;33.966;73.390;2022-11-20T08:22:51;7.25;;;5.13;;
63664;SDS011;49820;33.966;73.390;2022-11-20T08:26:10;10.43;;;7.90;;
63664;SDS011;49820;33.966;73.390;2022-11-20T08:28:39;9.68;;;6.07;;
63664;SDS011;49820;33.966;73.390;2022-11-20T08:31:08;5.85;;;4.00;;
63664;SDS011;49820;33.966;73.390;2022-11-20T08:33:37;5.55;;;3.70;;
63664;SDS011;49820;33.966;73.390;2022-11-20T08:36:07;7.75;;;4.57;;
63664;SDS011;49820;33.966;73.390;2022-11-20T08:38:36;5.40;;;3.35;;
63664;SDS011;49820;33.966;73.390;2022-11-20T08:41:05;6.53;;;3.90;;
63664;SDS011;49820;33.966;73.390;2022-11-20T08:43:55;6.78;;;4.38;;
63664;SDS011;49820;33.966;73.390;2022-11-20T08:46:26;4.75;;;3.50;;
63664;SDS011;49820;33.966;73.390;2022-11-20T08:48:59;5.47;;;3.72;;
63664;SDS011;49820;33.966;73.390;2022-11-20T08:51:28;6.28;;;4.20;;
63664;SDS011;49820;33.966;73.390;2022-11-20T08:53:57;7.57;;;5.07;;
63664;SDS011;49820;33.966;73.390;2022-11-20T08:56:26;6.60;;;4.90;;
63664;SDS011;49820;33.966;73.390;2022-11-20T08:58:56;6.05;;;4.47;;
63664;SDS011;49820;33.966;73.390;2022-11-20T09:01:45;6.63;;;5.13;;
63664;SDS011;49820;33.966;73.390;2022-11-20T09:04:14;8.63;;;5.60;;
63664;SDS011;49820;33.966;73.390;2022-11-20T09:06:43;7.80;;;5.47;;
63664;SDS011;49820;33.966;73.390;2022-11-20T09:09:12;9.05;;;5.50;;
63664;SDS011;49820;33.966;73.390;2022-11-20T09:11:41;9.25;;;5.57;;
63664;SDS011;49820;33.966;73.390;2022-11-20T09:14:09;7.67;;;4.90;;
63664;SDS011;49820;33.966;73.390;2022-11-20T09:16:38;7.80;;;5.20;;
63664;SDS011;49820;33.966;73.390;2022-11-20T09:19:07;7.18;;;5.32;;
63664;SDS011;49820;33.966;73.390;2022-11-20T09:21:56;6.95;;;5.00;;
63664;SDS011;49820;33.966;73.390;2022-11-20T09:24:45;8.82;;;5.28;;
63664;SDS011;49820;33.966;73.390;2022-11-20T09:27:14;8.65;;;5.68;;
63664;SDS011;49820;33.966;73.390;2022-11-20T09:29:43;8.60;;;5.90;;
63664;SDS011;49820;33.966;73.390;2022-11-20T09:32:12;7.60;;;5.35;;
63664;SDS011;49820;33.966;73.390;2022-11-20T09:34:40;9.07;;;5.60;;
63664;SDS011;49820;33.966;73.390;2022-11-20T09:37:09;9.43;;;5.30;;
63664;SDS011;49820;33.966;73.390;2022-11-20T09:39:38;9.38;;;6.10;;
63664;SDS011;49820;33.966;73.390;2022-11-20T09:53:55;10.85;;;7.18;;
63664;SDS011;49820;33.966;73.390;2022-11-20T09:57:22;9.10;;;6.23;;
63664;SDS011;49820;33.966;73.390;2022-11-20T10:00:08;9.05;;;6.30;;
63664;SDS011;49820;33.966;73.390;2022-11-20T10:13:35;10.30;;;6.38;;
63664;SDS011;49820;33.966;73.390;2022-11-20T10:24:57;9.68;;;6.40;;
63664;SDS011;49820;33.966;73.390;2022-11-20T10:30:40;9.77;;;6.50;;
63664;SDS011;49820;33.966;73.390;2022-11-20T10:33:19;9.63;;;6.38;;
63664;SDS011;49820;33.966;73.390;2022-11-20T10:38:34;8.75;;;5.65;;
63664;SDS011;49820;33.966;73.390;2022-11-20T10:41:24;8.33;;;6.00;;
63664;SDS011;49820;33.966;73.390;2022-11-20T10:44:15;8.43;;;5.72;;
63664;SDS011;49820;33.966;73.390;2022-11-20T10:47:04;7.15;;;5.38;;
63664;SDS011;49820;33.966;73.390;2022-11-20T10:49:38;7.65;;;4.82;;
63664;SDS011;49820;33.966;73.390;2022-11-20T10:52:24;8.15;;;5.72;;
63664;SDS011;49820;33.966;73.390;2022-11-20T10:55:22;9.77;;;6.28;;
63664;SDS011;49820;33.966;73.390;2022-11-20T10:58:13;9.85;;;5.60;;
63664;SDS011;49820;33.966;73.390;2022-11-20T11:00:43;8.30;;;5.45;;
63664;SDS011;49820;33.966;73.390;2022-11-20T11:06:03;12.68;;;6.75;;
63664;SDS011;49820;33.966;73.390;2022-11-20T11:08:38;10.02;;;6.03;;
63664;SDS011;49820;33.966;73.390;2022-11-20T11:13:43;12.35;;;6.88;;
63664;SDS011;49820;33.966;73.390;2022-11-20T11:16:23;10.48;;;6.68;;
63664;SDS011;49820;33.966;73.390;2022-11-20T11:19:03;10.48;;;6.30;;
63664;SDS011;49820;33.966;73.390;2022-11-20T11:21:33;10.52;;;5.93;;
63664;SDS011;49820;33.966;73.390;2022-11-20T11:24:03;9.43;;;6.00;;
63664;SDS011;49820;33.966;73.390;2022-11-20T11:26:55;10.80;;;6.47;;
63664;SDS011;49820;33.966;73.390;2022-11-20T11:29:25;11.43;;;6.32;;
63664;SDS011;49820;33.966;73.390;2022-11-20T11:32:06;9.55;;;6.03;;
63664;SDS011;49820;33.966;73.390;2022-11-20T11:34:37;10.73;;;6.82;;
63664;SDS011;49820;33.966;73.390;2022-11-20T11:37:10;13.48;;;7.97;;
63664;SDS011;49820;33.966;73.390;2022-11-20T11:39:51;12.30;;;8.05;;
63664;SDS011;49820;33.966;73.390;2022-11-20T11:42:44;13.75;;;8.43;;
63664;SDS011;49820;33.966;73.390;2022-11-20T11:45:19;10.80;;;6.85;;
63664;SDS011;49820;33.966;73.390;2022-11-20T11:47:49;13.50;;;6.97;;
63664;SDS011;49820;33.966;73.390;2022-11-20T11:50:21;11.88;;;6.90;;
63664;SDS011;49820;33.966;73.390;2022-11-20T11:53:14;12.23;;;8.10;;
63664;SDS011;49820;33.966;73.390;2022-11-20T11:55:54;12.27;;;8.25;;
63664;SDS011;49820;33.966;73.390;2022-11-20T12:03:37;15.52;;;9.85;;
63664;SDS011;49820;33.966;73.390;2022-11-20T12:06:18;19.47;;;10.47;;
63664;SDS011;49820;33.966;73.390;2022-11-20T12:08:56;23.00;;;11.65;;
63664;SDS011;49820;33.966;73.390;2022-11-20T12:14:26;22.35;;;11.48;;
63664;SDS011;49820;33.966;73.390;2022-11-20T12:16:57;24.30;;;12.10;;
63664;SDS011;49820;33.966;73.390;2022-11-20T12:19:26;20.95;;;10.57;;
63664;SDS011;49820;33.966;73.390;2022-11-20T12:30:41;17.10;;;8.90;;
63664;SDS011;49820;33.966;73.390;2022-11-20T12:39:22;17.05;;;10.15;;
63664;SDS011;49820;33.966;73.390;2022-11-20T13:13:42;20.50;;;11.15;;
63664;SDS011;49820;33.966;73.390;2022-11-20T13:16:34;19.67;;;11.60;;
63664;SDS011;49820;33.966;73.390;2022-11-20T13:19:13;20.27;;;11.13;;
63664;SDS011;49820;33.966;73.390;2022-11-20T13:21:45;20.13;;;11.48;;
63664;SDS011;49820;33.966;73.390;2022-11-20T13:29:33;20.25;;;11.13;;
63664;SDS011;49820;33.966;73.390;2022-11-20T13:35:00;18.73;;;11.07;;
63664;SDS011;49820;33.966;73.390;2022-11-20T13:37:32;17.75;;;10.48;;
63664;SDS011;49820;33.966;73.390;2022-11-20T13:42:45;20.17;;;11.38;;
63664;SDS011;49820;33.966;73.390;2022-11-20T13:45:24;18.45;;;11.32;;
63664;SDS011;49820;33.966;73.390;2022-11-20T13:56:01;18.85;;;10.63;;
63664;SDS011;49820;33.966;73.390;2022-11-20T13:58:59;19.15;;;11.52;;
63664;SDS011;49820;33.966;73.390;2022-11-20T14:01:42;20.48;;;11.45;;
63664;SDS011;49820;33.966;73.390;2022-11-20T14:04:15;19.10;;;11.23;;
63664;SDS011;49820;33.966;73.390;2022-11-20T14:06:51;19.80;;;10.98;;
63664;SDS011;49820;33.966;73.390;2022-11-20T14:09:38;20.80;;;11.48;;
63664;SDS011;49820;33.966;73.390;2022-11-20T14:12:17;23.77;;;12.27;;
63664;SDS011;49820;33.966;73.390;2022-11-20T14:14:50;19.52;;;11.85;;
63664;SDS011;49820;33.966;73.390;2022-11-20T14:17:22;20.10;;;12.50;;
63664;SDS011;49820;33.966;73.390;2022-11-20T14:19:58;19.48;;;11.07;;
63664;SDS011;49820;33.966;73.390;2022-11-20T14:22:33;20.85;;;11.38;;
63664;SDS011;49820;33.966;73.390;2022-11-20T14:25:06;17.50;;;9.80;;
63664;SDS011;49820;33.966;73.390;2022-11-20T14:27:44;19.92;;;11.27;;
63664;SDS011;49820;33.966;73.390;2022-11-20T14:30:21;20.50;;;11.10;;
63664;SDS011;49820;33.966;73.390;2022-11-20T14:32:53;19.05;;;11.20;;
63664;SDS011;49820;33.966;73.390;2022-11-20T14:35:34;17.35;;;10.48;;
63664;SDS011;49820;33.966;73.390;2022-11-20T14:38:11;19.97;;;10.97;;
63664;SDS011;49820;33.966;73.390;2022-11-20T14:40:42;19.03;;;10.47;;
63664;SDS011;49820;33.966;73.390;2022-11-20T14:43:20;18.30;;;10.25;;
63664;SDS011;49820;33.966;73.390;2022-11-20T14:45:56;18.77;;;10.95;;
63664;SDS011;49820;33.966;73.390;2022-11-20T14:48:31;16.73;;;10.00;;
63664;SDS011;49820;33.966;73.390;2022-11-20T14:51:05;22.50;;;10.90;;
63664;SDS011;49820;33.966;73.390;2022-11-20T14:53:34;17.48;;;10.43;;
63664;SDS011;49820;33.966;73.390;2022-11-20T14:56:03;18.88;;;11.05;;
63664;SDS011;49820;33.966;73.390;2022-11-20T14:58:32;18.98;;;10.15;;
63664;SDS011;49820;33.966;73.390;2022-11-20T15:01:04;17.17;;;10.52;;
63664;SDS011;49820;33.966;73.390;2022-11-20T15:03:36;17.33;;;10.93;;
63664;SDS011;49820;33.966;73.390;2022-11-20T15:06:07;18.02;;;10.45;;
63664;SDS011;49820;33.966;73.390;2022-11-20T15:08:50;17.98;;;10.27;;
63664;SDS011;49820;33.966;73.390;2022-11-20T15:11:23;18.23;;;9.70;;
63664;SDS011;49820;33.966;73.390;2022-11-20T15:14:00;18.02;;;9.00;;
63664;SDS011;49820;33.966;73.390;2022-11-20T15:16:32;16.00;;;9.23;;
63664;SDS011;49820;33.966;73.390;2022-11-20T15:19:03;17.55;;;9.48;;
63664;SDS011;49820;33.966;73.390;2022-11-20T15:21:47;12.43;;;7.32;;
63664;SDS011;49820;33.966;73.390;2022-11-20T15:24:18;18.05;;;9.35;;
63664;SDS011;49820;33.966;73.390;2022-11-20T15:26:48;16.67;;;10.43;;
63664;SDS011;49820;33.966;73.390;2022-11-20T15:29:17;15.40;;;8.52;;
63664;SDS011;49820;33.966;73.390;2022-11-20T15:31:47;12.20;;;6.60;;
63664;SDS011;49820;33.966;73.390;2022-11-20T15:34:16;9.37;;;5.80;;
63664;SDS011;49820;33.966;73.390;2022-11-20T15:36:45;11.10;;;5.78;;
63664;SDS011;49820;33.966;73.390;2022-11-20T15:39:14;9.18;;;5.20;;
63664;SDS011;49820;33.966;73.390;2022-11-20T15:41:44;10.67;;;5.80;;
63664;SDS011;49820;33.966;73.390;2022-11-20T15:44:13;11.02;;;5.32;;
63664;SDS011;49820;33.966;73.390;2022-11-20T15:46:42;9.30;;;5.32;;
63664;SDS011;49820;33.966;73.390;2022-11-20T15:49:14;10.93;;;6.20;;
63664;SDS011;49820;33.966;73.390;2022-11-20T15:51:51;13.38;;;7.05;;
63664;SDS011;49820;33.966;73.390;2022-11-20T15:54:22;13.20;;;7.65;;
63664;SDS011;49820;33.966;73.390;2022-11-20T15:56:53;15.88;;;9.25;;
63664;SDS011;49820;33.966;73.390;2022-11-20T15:59:22;17.48;;;9.95;;
63664;SDS011;49820;33.966;73.390;2022-11-20T16:01:51;17.63;;;10.18;;
63664;SDS011;49820;33.966;73.390;2022-11-20T16:04:22;18.10;;;10.10;;
63664;SDS011;49820;33.966;73.390;2022-11-20T16:06:52;20.25;;;11.10;;
63664;SDS011;49820;33.966;73.390;2022-11-20T16:09:21;18.40;;;10.50;;
63664;SDS011;49820;33.966;73.390;2022-11-20T16:11:50;21.42;;;11.85;;
63664;SDS011;49820;33.966;73.390;2022-11-20T16:14:20;17.15;;;10.52;;
63664;SDS011;49820;33.966;73.390;2022-11-20T16:17:10;19.60;;;10.57;;
63664;SDS011;49820;33.966;73.390;2022-11-20T16:19:39;19.50;;;9.50;;
63664;SDS011;49820;33.966;73.390;2022-11-20T16:22:10;16.55;;;8.10;;
63664;SDS011;49820;33.966;73.390;2022-11-20T16:24:40;13.80;;;8.65;;
63664;SDS011;49820;33.966;73.390;2022-11-20T16:27:09;14.77;;;8.70;;
63664;SDS011;49820;33.966;73.390;2022-11-20T16:29:39;14.40;;;8.20;;
63664;SDS011;49820;33.966;73.390;2022-11-20T16:32:08;12.57;;;7.70;;
63664;SDS011;49820;33.966;73.390;2022-11-20T16:34:38;13.60;;;7.68;;
63664;SDS011;49820;33.966;73.390;2022-11-20T16:37:07;14.25;;;8.20;;
63664;SDS011;49820;33.966;73.390;2022-11-20T16:39:37;15.60;;;8.98;;
63664;SDS011;49820;33.966;73.390;2022-11-20T16:42:06;15.07;;;9.00;;
63664;SDS011;49820;33.966;73.390;2022-11-20T16:44:35;12.85;;;8.15;;
63664;SDS011;49820;33.966;73.390;2022-11-20T16:47:04;9.20;;;5.78;;
63664;SDS011;49820;33.966;73.390;2022-11-20T16:49:33;11.83;;;6.37;;
63664;SDS011;49820;33.966;73.390;2022-11-20T16:52:02;11.57;;;6.22;;
63664;SDS011;49820;33.966;73.390;2022-11-20T16:54:31;9.43;;;4.80;;
63664;SDS011;49820;33.966;73.390;2022-11-20T16:57:00;7.93;;;4.37;;
63664;SDS011;49820;33.966;73.390;2022-11-20T16:59:29;8.05;;;5.13;;
63664;SDS011;49820;33.966;73.390;2022-11-20T17:01:58;8.70;;;4.90;;
63664;SDS011;49820;33.966;73.390;2022-11-20T17:04:27;8.07;;;4.57;;
63664;SDS011;49820;33.966;73.390;2022-11-20T17:07:02;8.20;;;5.10;;
63664;SDS011;49820;33.966;73.390;2022-11-20T17:09:34;9.50;;;5.50;;
63664;SDS011;49820;33.966;73.390;2022-11-20T17:12:06;9.90;;;5.72;;
63664;SDS011;49820;33.966;73.390;2022-11-20T17:14:35;10.97;;;6.27;;
63664;SDS011;49820;33.966;73.390;2022-11-20T17:17:04;8.20;;;4.88;;
63664;SDS011;49820;33.966;73.390;2022-11-20T17:19:36;9.85;;;6.13;;
63664;SDS011;49820;33.966;73.390;2022-11-20T17:22:13;10.07;;;6.20;;
63664;SDS011;49820;33.966;73.390;2022-11-20T17:24:42;8.85;;;5.00;;
63664;SDS011;49820;33.966;73.390;2022-11-20T17:27:11;8.10;;;5.18;;
63664;SDS011;49820;33.966;73.390;2022-11-20T17:29:42;10.10;;;5.20;;
63664;SDS011;49820;33.966;73.390;2022-11-20T17:32:11;10.75;;;6.20;;
63664;SDS011;49820;33.966;73.390;2022-11-20T17:34:40;13.05;;;7.10;;
63664;SDS011;49820;33.966;73.390;2022-11-20T17:37:09;12.55;;;7.28;;
63664;SDS011;49820;33.966;73.390;2022-11-20T17:39:38;12.02;;;7.05;;
63664;SDS011;49820;33.966;73.390;2022-11-20T17:42:08;17.15;;;8.40;;
63664;SDS011;49820;33.966;73.390;2022-11-20T17:45:06;15.73;;;8.57;;
63664;SDS011;49820;33.966;73.390;2022-11-20T17:47:35;15.90;;;8.85;;
63664;SDS011;49820;33.966;73.390;2022-11-20T17:50:04;14.45;;;8.43;;
63664;SDS011;49820;33.966;73.390;2022-11-20T17:52:33;12.13;;;7.43;;
63664;SDS011;49820;33.966;73.390;2022-11-20T17:55:02;13.02;;;7.10;;
63664;SDS011;49820;33.966;73.390;2022-11-20T17:57:32;10.88;;;5.72;;
63664;SDS011;49820;33.966;73.390;2022-11-20T18:00:19;10.30;;;5.32;;
63664;SDS011;49820;33.966;73.390;2022-11-20T18:02:49;7.85;;;4.07;;
63664;SDS011;49820;33.966;73.390;2022-11-20T18:05:18;7.15;;;4.03;;
63664;SDS011;49820;33.966;73.390;2022-11-20T18:07:50;8.05;;;4.53;;
63664;SDS011;49820;33.966;73.390;2022-11-20T18:10:20;7.57;;;4.38;;
63664;SDS011;49820;33.966;73.390;2022-11-20T18:12:50;8.68;;;4.30;;
63664;SDS011;49820;33.966;73.390;2022-11-20T18:15:20;7.43;;;4.38;;
63664;SDS011;49820;33.966;73.390;2022-11-20T18:17:49;7.00;;;4.38;;
63664;SDS011;49820;33.966;73.390;2022-11-20T18:20:18;7.80;;;4.30;;
63664;SDS011;49820;33.966;73.390;2022-11-20T18:22:55;7.22;;;4.55;;
63664;SDS011;49820;33.966;73.390;2022-11-20T18:25:25;7.00;;;4.20;;
63664;SDS011;49820;33.966;73.390;2022-11-20T18:27:54;9.63;;;4.90;;
63664;SDS011;49820;33.966;73.390;2022-11-20T18:30:23;11.07;;;6.88;;
63664;SDS011;49820;33.966;73.390;2022-11-20T18:32:52;12.27;;;6.03;;
63664;SDS011;49820;33.966;73.390;2022-11-20T18:35:22;12.45;;;6.53;;
63664;SDS011;49820;33.966;73.390;2022-11-20T18:37:51;10.40;;;5.82;;
63664;SDS011;49820;33.966;73.390;2022-11-20T18:40:20;10.30;;;5.43;;
63664;SDS011;49820;33.966;73.390;2022-11-20T18:42:49;9.52;;;5.47;;
63664;SDS011;49820;33.966;73.390;2022-11-20T18:45:37;7.75;;;4.82;;
63664;SDS011;49820;33.966;73.390;2022-11-20T18:48:06;9.05;;;4.80;;
63664;SDS011;49820;33.966;73.390;2022-11-20T18:50:36;9.70;;;4.60;;
63664;SDS011;49820;33.966;73.390;2022-11-20T18:53:05;10.55;;;5.50;;
63664;SDS011;49820;33.966;73.390;2022-11-20T18:55:34;10.77;;;6.18;;
63664;SDS011;49820;33.966;73.390;2022-11-20T18:58:03;11.20;;;6.05;;
63664;SDS011;49820;33.966;73.390;2022-11-20T19:00:32;10.63;;;5.70;;
63664;SDS011;49820;33.966;73.390;2022-11-20T19:03:01;9.33;;;5.07;;
63664;SDS011;49820;33.966;73.390;2022-11-20T19:05:31;10.90;;;5.68;;
63664;SDS011;49820;33.966;73.390;2022-11-20T19:08:05;7.70;;;4.43;;
63664;SDS011;49820;33.966;73.390;2022-11-20T19:10:34;9.30;;;5.00;;
63664;SDS011;49820;33.966;73.390;2022-11-20T19:13:04;8.18;;;4.30;;
63664;SDS011;49820;33.966;73.390;2022-11-20T19:15:33;7.47;;;4.38;;
63664;SDS011;49820;33.966;73.390;2022-11-20T19:18:04;8.65;;;4.50;;
63664;SDS011;49820;33.966;73.390;2022-11-20T19:20:34;7.35;;;4.53;;
63664;SDS011;49820;33.966;73.390;2022-11-20T19:23:03;6.75;;;4.13;;
63664;SDS011;49820;33.966;73.390;2022-11-20T19:25:32;8.45;;;4.07;;
63664;SDS011;49820;33.966;73.390;2022-11-20T19:28:04;8.43;;;4.57;;
63664;SDS011;49820;33.966;73.390;2022-11-20T19:30:33;9.93;;;5.80;;
63664;SDS011;49820;33.966;73.390;2022-11-20T19:33:02;8.80;;;4.78;;
63664;SDS011;49820;33.966;73.390;2022-11-20T19:35:31;8.82;;;5.00;;
63664;SDS011;49820;33.966;73.390;2022-11-20T19:38:00;9.82;;;5.18;;
63664;SDS011;49820;33.966;73.390;2022-11-20T19:40:31;9.57;;;5.45;;
63664;SDS011;49820;33.966;73.390;2022-11-20T19:43:01;9.85;;;5.03;;
63664;SDS011;49820;33.966;73.390;2022-11-20T19:45:32;8.47;;;4.70;;
63664;SDS011;49820;33.966;73.390;2022-11-20T19:48:00;10.68;;;5.18;;
63664;SDS011;49820;33.966;73.390;2022-11-20T19:50:34;9.03;;;5.13;;
63664;SDS011;49820;33.966;73.390;2022-11-20T19:53:03;9.93;;;5.45;;
63664;SDS011;49820;33.966;73.390;2022-11-20T19:55:34;9.38;;;5.40;;
63664;SDS011;49820;33.966;73.390;2022-11-20T19:58:03;10.02;;;5.25;;
63664;SDS011;49820;33.966;73.390;2022-11-20T20:00:32;9.07;;;5.32;;
63664;SDS011;49820;33.966;73.390;2022-11-20T20:03:01;10.60;;;5.13;;
63664;SDS011;49820;33.966;73.390;2022-11-20T20:05:32;9.68;;;5.20;;
63664;SDS011;49820;33.966;73.390;2022-11-20T20:08:02;9.65;;;5.05;;
63664;SDS011;49820;33.966;73.390;2022-11-20T20:10:31;8.82;;;5.10;;
63664;SDS011;49820;33.966;73.390;2022-11-20T20:13:00;8.68;;;4.38;;
63664;SDS011;49820;33.966;73.390;2022-11-20T20:15:29;8.27;;;4.35;;
63664;SDS011;49820;33.966;73.390;2022-11-20T20:17:58;6.93;;;4.20;;
63664;SDS011;49820;33.966;73.390;2022-11-20T20:20:27;7.82;;;4.65;;
63664;SDS011;49820;33.966;73.390;2022-11-20T20:22:56;9.13;;;4.87;;
63664;SDS011;49820;33.966;73.390;2022-11-20T20:25:25;7.78;;;5.13;;
63664;SDS011;49820;33.966;73.390;2022-11-20T20:27:54;8.88;;;5.20;;
63664;SDS011;49820;33.966;73.390;2022-11-20T20:30:24;9.90;;;5.78;;
63664;SDS011;49820;33.966;73.390;2022-11-20T20:32:53;12.05;;;5.93;;
63664;SDS011;49820;33.966;73.390;2022-11-20T20:35:22;10.93;;;5.95;;
63664;SDS011;49820;33.966;73.390;2022-11-20T20:37:52;9.40;;;5.20;;
63664;SDS011;49820;33.966;73.390;2022-11-20T20:40:21;10.68;;;5.68;;
63664;SDS011;49820;33.966;73.390;2022-11-20T20:42:50;9.73;;;4.95;;
63664;SDS011;49820;33.966;73.390;2022-11-20T20:45:19;7.57;;;4.95;;
63664;SDS011;49820;33.966;73.390;2022-11-20T20:47:48;7.93;;;5.00;;
63664;SDS011;49820;33.966;73.390;2022-11-20T20:50:17;11.83;;;5.47;;
63664;SDS011;49820;33.966;73.390;2022-11-20T20:52:47;9.68;;;5.55;;
63664;SDS011;49820;33.966;73.390;2022-11-20T20:55:16;11.73;;;5.97;;
63664;SDS011;49820;33.966;73.390;2022-11-20T20:57:51;10.40;;;5.30;;
63664;SDS011;49820;33.966;73.390;2022-11-20T21:00:22;11.27;;;6.03;;
63664;SDS011;49820;33.966;73.390;2022-11-20T21:02:51;8.70;;;5.43;;
63664;SDS011;49820;33.966;73.390;2022-11-20T21:05:20;9.05;;;5.32;;
63664;SDS011;49820;33.966;73.390;2022-11-20T21:07:49;10.82;;;4.85;;
63664;SDS011;49820;33.966;73.390;2022-11-20T21:10:36;11.98;;;5.30;;
63664;SDS011;49820;33.966;73.390;2022-11-20T21:13:05;8.88;;;5.13;;
63664;SDS011;49820;33.966;73.390;2022-11-20T21:15:37;9.13;;;4.82;;
63664;SDS011;49820;33.966;73.390;2022-11-20T21:18:06;8.52;;;5.00;;
63664;SDS011;49820;33.966;73.390;2022-11-20T21:20:38;9.23;;;5.07;;
63664;SDS011;49820;33.966;73.390;2022-11-20T21:23:25;7.65;;;4.85;;
63664;SDS011;49820;33.966;73.390;2022-11-20T21:25:54;7.87;;;4.03;;
63664;SDS011;49820;33.966;73.390;2022-11-20T21:28:24;9.30;;;4.70;;
63664;SDS011;49820;33.966;73.390;2022-11-20T21:31:00;9.40;;;5.07;;
63664;SDS011;49820;33.966;73.390;2022-11-20T21:33:44;9.32;;;5.30;;
63664;SDS011;49820;33.966;73.390;2022-11-20T21:36:15;7.93;;;4.68;;
63664;SDS011;49820;33.966;73.390;2022-11-20T21:38:51;10.40;;;4.80;;
63664;SDS011;49820;33.966;73.390;2022-11-20T21:41:24;8.93;;;5.07;;
63664;SDS011;49820;33.966;73.390;2022-11-20T21:43:54;7.83;;;4.77;;
63664;SDS011;49820;33.966;73.390;2022-11-20T21:46:44;9.38;;;5.30;;
63664;SDS011;49820;33.966;73.390;2022-11-20T21:49:13;8.55;;;5.30;;
63664;SDS011;49820;33.966;73.390;2022-11-20T21:51:44;8.85;;;5.53;;
63664;SDS011;49820;33.966;73.390;2022-11-20T21:54:14;9.20;;;5.57;;
63664;SDS011;49820;33.966;73.390;2022-11-20T21:56:44;11.73;;;6.43;;
63664;SDS011;49820;33.966;73.390;2022-11-20T21:59:13;11.48;;;6.10;;
63664;SDS011;49820;33.966;73.390;2022-11-20T22:01:42;12.23;;;6.35;;
63664;SDS011;49820;33.966;73.390;2022-11-20T22:04:12;11.70;;;5.97;;
63664;SDS011;49820;33.966;73.390;2022-11-20T22:06:42;11.52;;;6.25;;
63664;SDS011;49820;33.966;73.390;2022-11-20T22:09:11;11.90;;;6.45;;
63664;SDS011;49820;33.966;73.390;2022-11-20T22:11:40;10.18;;;5.90;;
63664;SDS011;49820;33.966;73.390;2022-11-20T22:14:09;9.53;;;5.03;;
63664;SDS011;49820;33.966;73.390;2022-11-20T22:16:49;8.70;;;4.85;;
63664;SDS011;49820;33.966;73.390;2022-11-20T22:19:19;9.40;;;5.20;;
63664;SDS011;49820;33.966;73.390;2022-11-20T22:21:49;12.20;;;5.22;;
63664;SDS011;49820;33.966;73.390;2022-11-20T22:24:19;9.25;;;5.35;;
63664;SDS011;49820;33.966;73.390;2022-11-20T22:26:50;8.88;;;4.55;;
63664;SDS011;49820;33.966;73.390;2022-11-20T22:29:19;7.45;;;4.72;;
63664;SDS011;49820;33.966;73.390;2022-11-20T22:31:52;8.45;;;5.22;;
63664;SDS011;49820;33.966;73.390;2022-11-20T22:34:22;9.68;;;5.15;;
63664;SDS011;49820;33.966;73.390;2022-11-20T22:36:52;8.50;;;4.90;;
63664;SDS011;49820;33.966;73.390;2022-11-20T22:39:21;8.43;;;4.97;;
63664;SDS011;49820;33.966;73.390;2022-11-20T22:41:50;9.65;;;5.63;;
63664;SDS011;49820;33.966;73.390;2022-11-20T22:44:19;8.90;;;5.18;;
63664;SDS011;49820;33.966;73.390;2022-11-20T22:46:48;9.25;;;5.03;;
63664;SDS011;49820;33.966;73.390;2022-11-20T22:49:17;9.07;;;5.07;;
63664;SDS011;49820;33.966;73.390;2022-11-20T22:51:46;8.55;;;4.90;;
63664;SDS011;49820;33.966;73.390;2022-11-20T22:54:15;9.38;;;5.55;;
63664;SDS011;49820;33.966;73.390;2022-11-20T22:56:44;9.68;;;5.40;;
63664;SDS011;49820;33.966;73.390;2022-11-20T22:59:13;9.52;;;5.70;;
63664;SDS011;49820;33.966;73.390;2022-11-20T23:01:45;10.55;;;6.32;;
63664;SDS011;49820;33.966;73.390;2022-11-20T23:04:14;11.48;;;6.13;;
63664;SDS011;49820;33.966;73.390;2022-11-20T23:06:43;10.90;;;6.57;;
63664;SDS011;49820;33.966;73.390;2022-11-20T23:09:12;10.32;;;5.88;;
63664;SDS011;49820;33.966;73.390;2022-11-20T23:11:41;11.55;;;6.25;;
63664;SDS011;49820;33.966;73.390;2022-11-20T23:14:13;11.77;;;6.57;;
63664;SDS011;49820;33.966;73.390;2022-11-20T23:16:43;12.43;;;6.53;;
63664;SDS011;49820;33.966;73.390;2022-11-20T23:19:12;11.90;;;6.75;;
63664;SDS011;49820;33.966;73.390;2022-11-20T23:21:41;11.18;;;6.00;;
63664;SDS011;49820;33.966;73.390;2022-11-20T23:24:10;12.63;;;5.90;;